Time;durP1;ratioP1;P1;durP2;ratioP2;P2;SDS_P1;SDS_P2;PMS_P1;PMS_P2;Temp;Humidity;BMP_temperature;BMP_pressure;BME280_temperature;BME280_humidity;BME280_pressure;Samples;Min_cycle;Max_cycle;Signal;HPM_P1;HPM_P2
2023/01/21 00:00:24;;;;;;;0.60;0.60;;;;;;;6.74;100.00;99002.47;5071778;28;20207;-67
2023/01/21 00:02:51;;;;;;;0.50;0.50;;;;;;;6.66;100.00;99001.78;5072286;28;20203;-63
2023/01/21 00:05:18;;;;;;;0.70;0.70;;;;;;;6.61;100.00;99008.69;5071169;28;20614;-63
2023/01/21 00:07:46;;;;;;;0.50;0.50;;;;;;;6.61;100.00;99008.69;5072341;28;20196;-63
2023/01/21 00:10:12;;;;;;;0.50;0.50;;;;;;;6.61;100.00;99013.78;5071258;28;20199;-63
2023/01/21 00:12:39;;;;;;;0.50;0.50;;;;;;;6.57;100.00;99012.16;5072393;28;20223;-63
2023/01/21 00:15:07;;;;;;;0.70;0.70;;;;;;;6.57;100.00;99012.16;5072241;28;20572;-63
2023/01/21 00:17:35;;;;;;;0.77;0.77;;;;;;;6.56;100.00;99016.41;5072101;28;20196;-63
2023/01/21 00:20:02;;;;;;;0.60;0.60;;;;;;;6.53;100.00;99023.28;5072030;28;20234;-62
2023/01/21 00:22:29;;;;;;;0.70;0.70;;;;;;;6.51;100.00;99028.41;5070517;28;20196;-62
2023/01/21 00:24:58;;;;;;;0.60;0.60;;;;;;;6.43;100.00;99030.25;5071991;28;20203;-62
2023/01/21 00:27:24;;;;;;;0.63;0.63;;;;;;;6.47;100.00;99046.31;5071969;28;20196;-62
2023/01/21 00:29:51;;;;;;;0.80;0.80;;;;;;;6.42;100.00;99043.03;5069921;28;20220;-62
2023/01/21 00:32:18;;;;;;;0.60;0.60;;;;;;;6.30;100.00;99032.22;5071776;28;20580;-62
2023/01/21 00:34:45;;;;;;;0.50;0.50;;;;;;;6.29;100.00;99028.00;5070542;28;20553;-62
2023/01/21 00:37:12;;;;;;;0.50;0.50;;;;;;;6.28;100.00;99026.31;5071917;28;20666;-62
2023/01/21 00:39:41;;;;;;;0.60;0.60;;;;;;;6.25;100.00;99034.00;5071145;28;20196;-62
2023/01/21 00:42:10;;;;;;;0.80;0.80;;;;;;;6.26;100.00;99035.69;5071516;28;20203;-61
2023/01/21 00:44:37;;;;;;;0.70;0.70;;;;;;;6.22;100.00;99045.94;5071118;28;20211;-62
2023/01/21 00:47:04;;;;;;;0.80;0.80;;;;;;;6.20;100.00;99048.50;5070669;28;20192;-62
2023/01/21 00:49:31;;;;;;;0.60;0.60;;;;;;;6.18;100.00;99052.81;5071237;28;20207;-62
2023/01/21 00:51:57;;;;;;;0.60;0.60;;;;;;;6.21;100.00;99045.09;5071039;28;20196;-61
2023/01/21 00:54:24;;;;;;;1.63;1.63;;;;;;;6.06;100.00;99035.22;5070979;28;20196;-62
2023/01/21 00:56:51;;;;;;;0.60;0.60;;;;;;;6.10;100.00;99031.75;5071027;28;20246;-62
2023/01/21 00:59:19;;;;;;;0.40;0.40;;;;;;;6.06;100.00;99014.88;5071081;28;20196;-62
2023/01/21 01:01:46;;;;;;;0.50;0.50;;;;;;;6.05;100.00;99013.19;5070916;28;20207;-62
2023/01/21 01:04:13;;;;;;;0.73;0.73;;;;;;;6.02;100.00;99013.22;5071349;28;20757;-61
2023/01/21 01:06:40;;;;;;;0.63;0.63;;;;;;;6.06;100.00;99019.94;5070535;28;20196;-64
2023/01/21 01:09:06;;;;;;;0.50;0.50;;;;;;;6.03;100.00;99024.25;5070671;28;20642;-63
2023/01/21 01:11:33;;;;;;;0.50;0.50;;;;;;;5.97;100.00;99017.56;5070270;28;20258;-64
2023/01/21 01:14:00;;;;;;;0.60;0.60;;;;;;;5.88;100.00;99014.34;5070548;28;20237;-64
2023/01/21 01:16:28;;;;;;;0.50;0.50;;;;;;;5.79;100.00;99020.38;5070285;28;20592;-63
2023/01/21 01:18:55;;;;;;;0.53;0.53;;;;;;;5.80;100.00;99011.91;5070033;28;20203;-64
2023/01/21 01:21:22;;;;;;;0.50;0.50;;;;;;;5.78;100.00;99009.38;5070266;28;20196;-64
2023/01/21 01:23:53;;;;;;;0.60;0.60;;;;;;;5.75;100.00;99003.53;5069955;28;20203;-64
2023/01/21 01:26:21;;;;;;;0.50;0.50;;;;;;;5.75;100.00;98998.44;5070639;28;20203;-67
2023/01/21 01:28:48;;;;;;;0.63;0.63;;;;;;;5.73;100.00;98989.97;5070203;28;20215;-67
2023/01/21 01:31:16;;;;;;;0.50;0.50;;;;;;;5.69;100.00;98989.19;5069956;28;20707;-67
2023/01/21 01:33:45;;;;;;;0.50;0.50;;;;;;;5.63;100.00;98993.53;5069924;28;20206;-67
2023/01/21 01:36:14;;;;;;;0.60;0.60;;;;;;;5.58;100.00;98987.72;5069817;28;20230;-67
2023/01/21 01:38:42;;;;;;;0.60;0.60;;;;;;;5.55;100.00;98992.84;5070200;28;20196;-67
2023/01/21 01:41:13;;;;;;;0.63;0.63;;;;;;;5.61;100.00;98990.19;5070120;28;20664;-67
2023/01/21 01:43:52;;;;;;;0.53;0.53;;;;;;;5.49;100.00;98975.16;5070062;28;20200;-67
2023/01/21 01:46:19;;;;;;;0.60;0.60;;;;;;;5.59;100.00;98999.56;5070300;28;20194;-67
2023/01/21 01:48:52;;;;;;;0.50;0.50;;;;;;;5.58;100.00;98995.34;5070232;28;20257;-67
2023/01/21 01:51:30;;;;;;;0.60;0.60;;;;;;;5.56;100.00;98991.97;5069957;28;20660;-67
2023/01/21 01:53:57;;;;;;;0.60;0.60;;;;;;;5.27;100.00;98972.94;5069124;28;20195;-67
2023/01/21 01:56:23;;;;;;;0.67;0.67;;;;;;;5.17;100.00;98984.09;5069924;28;20269;-67
2023/01/21 01:58:52;;;;;;;0.57;0.57;;;;;;;5.18;100.00;98988.34;5073219;28;20203;-67
2023/01/21 02:01:19;;;;;;;0.60;0.60;;;;;;;5.17;100.00;99004.44;5073111;28;20196;-67
2023/01/21 02:03:57;;;;;;;0.50;0.50;;;;;;;5.14;100.00;99004.47;5074078;28;20200;-67
2023/01/21 02:06:24;;;;;;;0.60;0.60;;;;;;;5.12;100.00;99001.13;5073745;28;20196;-67
2023/01/21 02:08:52;;;;;;;0.60;0.60;;;;;;;5.09;100.00;98996.09;5074163;28;20250;-67
2023/01/21 02:11:20;;;;;;;0.50;0.50;;;;;;;5.10;100.00;99005.41;5073807;28;20201;-67
2023/01/21 02:13:50;;;;;;;0.60;0.60;;;;;;;5.09;100.00;99001.19;5073884;28;20199;-67
2023/01/21 02:16:54;;;;;;;0.50;0.50;;;;;;;5.04;100.00;98997.84;5073309;28;20215;-67
2023/01/21 02:19:51;;;;;;;0.80;0.80;;;;;;;5.04;100.00;99002.94;5068266;28;20203;-67
2023/01/21 02:22:24;;;;;;;0.60;0.60;;;;;;;4.91;100.00;98996.34;5073464;28;20199;-67
2023/01/21 02:25:28;;;;;;;0.60;0.60;;;;;;;4.87;100.00;98993.88;5073633;28;20257;-67
2023/01/21 02:28:14;;;;;;;0.60;0.60;;;;;;;4.86;100.00;99010.81;5073475;28;20196;-67
2023/01/21 02:30:54;;;;;;;0.57;0.57;;;;;;;4.86;100.00;99008.28;5070323;28;20220;-67
2023/01/21 02:33:44;;;;;;;0.50;0.50;;;;;;;4.88;100.00;99013.34;5073543;28;20200;-63
2023/01/21 02:36:26;;;;;;;0.77;0.77;;;;;;;4.90;100.00;99014.16;5073371;28;20600;-62
2023/01/21 02:39:03;;;;;;;0.60;0.60;;;;;;;4.90;100.00;99011.63;5073604;28;20676;-63
2023/01/21 02:41:42;;;;;;;0.60;0.60;;;;;;;4.86;100.00;99007.44;5071703;28;20575;-63
2023/01/21 02:44:16;;;;;;;0.80;0.80;;;;;;;4.93;100.00;99009.88;5072625;28;20672;-63
2023/01/21 02:46:46;;;;;;;0.60;0.60;;;;;;;4.91;100.00;99001.41;5073783;28;20200;-63
2023/01/21 02:49:23;;;;;;;0.70;0.70;;;;;;;4.86;100.00;98993.03;5071814;28;20212;-63
2023/01/21 02:51:50;;;;;;;0.60;0.60;;;;;;;4.79;100.00;99001.59;5073041;28;20745;-63
2023/01/21 02:54:48;;;;;;;0.60;0.60;;;;;;;4.84;100.00;98999.84;5073191;28;20204;-63
2023/01/21 02:57:17;;;;;;;0.57;0.57;;;;;;;4.75;100.00;98987.25;5072909;28;20254;-63
2023/01/21 02:59:48;;;;;;;0.60;0.60;;;;;;;4.71;100.00;98972.94;5073254;28;20204;-63
2023/01/21 03:02:28;;;;;;;0.60;0.60;;;;;;;4.64;100.00;98971.34;5073080;28;20256;-63
2023/01/21 03:05:08;;;;;;;0.70;0.70;;;;;;;4.69;100.00;98980.56;5072760;28;20636;-63
2023/01/21 03:07:41;;;;;;;0.60;0.60;;;;;;;4.71;100.00;98988.19;5073472;28;20224;-63
2023/01/21 03:10:12;;;;;;;0.70;0.70;;;;;;;4.60;100.00;98979.84;5071661;28;20196;-63
2023/01/21 03:12:48;;;;;;;0.50;0.50;;;;;;;4.75;100.00;98990.63;5072712;28;20199;-62
2023/01/21 03:18:11;;;;;;;0.60;0.60;;;;;;;4.78;100.00;98994.88;5073046;28;20281;-62
2023/01/21 03:20:43;;;;;;;0.50;0.50;;;;;;;4.73;100.00;98986.44;5073054;28;20204;-63
2023/01/21 03:23:15;;;;;;;0.57;0.57;;;;;;;4.71;100.00;98978.03;5071596;28;20215;-63
2023/01/21 03:25:43;;;;;;;0.50;0.50;;;;;;;4.68;100.00;98967.91;5072074;28;20196;-62
2023/01/21 03:28:14;;;;;;;0.50;0.50;;;;;;;4.68;100.00;98973.00;5071471;28;20199;-63
2023/01/21 03:30:44;;;;;;;0.70;0.70;;;;;;;4.67;100.00;98986.53;5072615;28;20230;-62
2023/01/21 03:33:15;;;;;;;0.60;0.60;;;;;;;4.66;100.00;98984.84;5072547;28;20207;-62
2023/01/21 03:35:47;;;;;;;0.57;0.57;;;;;;;4.52;100.00;98958.81;5072223;28;20204;-63
2023/01/21 03:38:18;;;;;;;0.60;0.60;;;;;;;4.58;100.00;98971.44;5072886;28;20497;-63
2023/01/21 03:40:52;;;;;;;0.60;0.60;;;;;;;4.54;100.00;98969.78;5072270;28;20204;-63
2023/01/21 03:43:19;;;;;;;1.23;1.23;;;;;;;4.43;100.00;98967.38;5072541;28;20277;-62
2023/01/21 03:45:50;;;;;;;0.70;0.70;;;;;;;4.42;100.00;98970.78;5072229;28;20196;-62
2023/01/21 03:48:23;;;;;;;0.80;0.80;;;;;;;4.36;100.00;98970.03;5072636;28;20196;-63
2023/01/21 03:50:57;;;;;;;0.77;0.77;;;;;;;4.26;100.00;98955.78;5072169;28;20565;-62
2023/01/21 03:53:25;;;;;;;0.60;0.60;;;;;;;4.40;100.00;98976.72;5072810;28;20690;-62
2023/01/21 03:55:52;;;;;;;0.50;0.50;;;;;;;4.42;100.00;98977.56;5072054;28;20219;-63
2023/01/21 03:58:19;;;;;;;0.60;0.60;;;;;;;4.32;100.00;98974.28;5070090;28;20219;-62
2023/01/21 04:00:48;;;;;;;0.70;0.70;;;;;;;4.24;100.00;98964.22;5072132;28;20200;-63
2023/01/21 04:03:14;;;;;;;0.70;0.70;;;;;;;4.38;100.00;99003.81;5072297;28;20239;-62
2023/01/21 04:05:41;;;;;;;0.70;0.70;;;;;;;4.29;100.00;98999.72;5071816;28;20254;-62
2023/01/21 04:08:09;;;;;;;0.50;0.50;;;;;;;4.29;100.00;98989.56;5072265;28;20196;-63
2023/01/21 04:10:36;;;;;;;0.60;0.60;;;;;;;4.31;100.00;98999.66;5071782;28;20198;-63
2023/01/21 04:13:03;;;;;;;0.63;0.63;;;;;;;4.20;100.00;98993.00;5072208;28;20737;-63
2023/01/21 04:15:30;;;;;;;0.70;0.70;;;;;;;4.20;100.00;98990.47;5072344;28;20581;-62
2023/01/21 04:17:56;;;;;;;0.67;0.67;;;;;;;4.19;100.00;98998.13;5071413;28;20227;-63
2023/01/21 04:20:23;;;;;;;0.60;0.60;;;;;;;4.17;100.00;99005.72;5071386;28;20207;-62
2023/01/21 04:22:50;;;;;;;0.60;0.60;;;;;;;4.19;100.00;99023.50;5070897;28;20253;-63
2023/01/21 04:25:18;;;;;;;0.80;0.80;;;;;;;4.10;100.00;99013.44;5072079;28;20196;-62
2023/01/21 04:27:45;;;;;;;0.50;0.50;;;;;;;4.19;100.00;99021.81;5071850;28;20254;-62
2023/01/21 04:30:12;;;;;;;0.70;0.70;;;;;;;4.15;100.00;99027.75;5070822;28;20220;-63
2023/01/21 04:32:39;;;;;;;0.70;0.70;;;;;;;4.16;100.00;99047.19;5071555;28;20200;-63
2023/01/21 04:35:06;;;;;;;0.60;0.60;;;;;;;4.13;100.00;99049.78;5071481;28;20208;-62
2023/01/21 04:37:33;;;;;;;0.70;0.70;;;;;;;4.02;100.00;99026.19;5071466;28;20211;-62
2023/01/21 04:40:00;;;;;;;0.67;0.67;;;;;;;4.07;100.00;99033.78;5070891;28;20210;-62
2023/01/21 04:42:28;;;;;;;0.60;0.60;;;;;;;3.74;100.00;99034.94;5071327;28;20208;-63
2023/01/21 04:44:55;;;;;;;0.70;0.70;;;;;;;3.46;100.00;99015.72;5071572;28;20664;-62
2023/01/21 04:47:22;;;;;;;0.70;0.70;;;;;;;3.57;100.00;99011.41;5070852;28;20196;-62
2023/01/21 04:49:48;;;;;;;0.70;0.70;;;;;;;3.61;100.00;99028.28;5071479;28;20200;-62
2023/01/21 04:52:15;;;;;;;0.70;0.70;;;;;;;3.68;100.00;99040.88;5070987;28;20643;-62
2023/01/21 04:54:42;;;;;;;0.60;0.60;;;;;;;3.63;100.00;99026.56;5071327;28;20204;-62
2023/01/21 04:57:09;;;;;;;1.53;1.53;;;;;;;3.60;100.00;99017.28;5070703;28;20273;-62
2023/01/21 04:59:37;;;;;;;1.43;1.43;;;;;;;3.62;100.00;99024.88;5070814;28;20196;-63
2023/01/21 05:02:04;;;;;;;0.70;0.70;;;;;;;3.64;100.00;99028.25;5070752;28;20200;-62
2023/01/21 05:04:31;;;;;;;0.60;0.60;;;;;;;3.69;100.00;99031.56;5071074;28;20678;-62
2023/01/21 05:06:58;;;;;;;0.60;0.60;;;;;;;3.74;100.00;99045.06;5069749;28;20648;-62
2023/01/21 05:09:26;;;;;;;0.70;0.70;;;;;;;3.71;100.00;99047.63;5069336;28;20738;-67
2023/01/21 05:11:52;;;;;;;0.60;0.60;;;;;;;3.78;100.00;99050.94;5070101;28;20735;-67
2023/01/21 05:14:19;;;;;;;0.50;0.50;;;;;;;3.80;100.00;99051.75;5070472;28;20206;-67
2023/01/21 05:16:47;;;;;;;0.70;0.70;;;;;;;3.81;100.00;99041.63;5070550;28;20207;-66
2023/01/21 05:19:14;;;;;;;0.60;0.60;;;;;;;3.74;100.00;99060.28;5070866;28;20713;-67
2023/01/21 05:21:41;;;;;;;0.90;0.90;;;;;;;3.71;100.00;99060.28;5070187;28;20195;-66
2023/01/21 05:24:08;;;;;;;0.60;0.60;;;;;;;3.75;100.00;99056.06;5070637;28;20204;-67
2023/01/21 05:26:35;;;;;;;0.70;0.70;;;;;;;3.75;100.00;99051.78;5070581;28;20366;-67
2023/01/21 05:29:02;;;;;;;0.60;0.60;;;;;;;3.77;100.00;99044.19;5068008;28;20204;-67
2023/01/21 05:31:29;;;;;;;1.60;1.60;;;;;;;3.67;100.00;99048.50;5062701;28;20577;-67
2023/01/21 05:33:58;;;;;;;1.00;1.00;;;;;;;3.49;100.00;99051.19;5062926;28;20213;-66
2023/01/21 05:36:25;;;;;;;0.80;0.80;;;;;;;3.48;100.00;99052.03;5065420;28;20200;-67
2023/01/21 05:38:51;;;;;;;0.60;0.60;;;;;;;3.26;100.00;99041.22;5064429;28;20231;-66
2023/01/21 05:41:18;;;;;;;0.50;0.50;;;;;;;3.23;100.00;99050.53;5060248;28;20192;-67
2023/01/21 05:43:45;;;;;;;0.70;0.70;;;;;;;3.28;100.00;99046.25;5069822;28;20257;-66
2023/01/21 05:46:12;;;;;;;0.60;0.60;;;;;;;3.28;100.00;99056.38;5070143;28;20222;-66
2023/01/21 05:48:39;;;;;;;0.70;0.70;;;;;;;3.30;100.00;99047.06;5070250;28;20192;-67
2023/01/21 05:51:07;;;;;;;0.60;0.60;;;;;;;3.30;100.00;99052.97;5069680;28;20204;-66
2023/01/21 05:53:34;;;;;;;0.70;0.70;;;;;;;3.36;100.00;99052.13;5069951;28;20254;-66
2023/01/21 05:56:01;;;;;;;0.80;0.80;;;;;;;3.40;100.00;99052.06;5069942;28;20196;-66
2023/01/21 05:58:27;;;;;;;0.60;0.60;;;;;;;3.39;100.00;99057.16;5069728;28;20680;-67
2023/01/21 06:00:56;;;;;;;0.60;0.60;;;;;;;3.47;100.00;99085.81;5069427;28;20261;-67
2023/01/21 06:03:23;;;;;;;0.60;0.60;;;;;;;3.40;100.00;99063.91;5068611;28;20208;-67
2023/01/21 06:05:51;;;;;;;0.60;0.60;;;;;;;3.57;100.00;99092.50;5069976;28;20195;-68
2023/01/21 06:08:19;;;;;;;0.60;0.60;;;;;;;3.63;100.00;99092.44;5069710;28;20207;-60
2023/01/21 06:10:46;;;;;;;0.60;0.60;;;;;;;3.62;100.00;99091.59;5070133;28;20253;-60
2023/01/21 06:13:15;;;;;;;0.80;0.80;;;;;;;3.55;100.00;99094.22;5070814;28;20564;-61
2023/01/21 06:15:42;;;;;;;0.60;0.60;;;;;;;3.65;100.00;99085.69;5070511;28;20266;-60
2023/01/21 06:18:09;;;;;;;0.50;0.50;;;;;;;3.70;100.00;99078.88;5069976;28;20281;-60
2023/01/21 06:20:36;;;;;;;0.67;0.67;;;;;;;3.69;100.00;99084.78;5069622;28;20201;-60
2023/01/21 06:23:03;;;;;;;0.57;0.57;;;;;;;3.75;100.00;99084.75;5069843;28;20200;-61
2023/01/21 06:25:32;;;;;;;0.60;0.60;;;;;;;3.78;100.00;99066.16;5069773;28;20204;-62
2023/01/21 06:28:00;;;;;;;0.70;0.70;;;;;;;3.74;100.00;99060.28;5069722;28;20196;-60
2023/01/21 06:30:27;;;;;;;0.60;0.60;;;;;;;3.70;100.00;99053.53;5069711;28;20588;-60
2023/01/21 06:32:53;;;;;;;0.73;0.73;;;;;;;3.69;100.00;99064.53;5069394;28;20196;-60
2023/01/21 06:35:21;;;;;;;0.67;0.67;;;;;;;3.72;100.00;99076.34;5067930;28;20254;-60
2023/01/21 06:37:48;;;;;;;0.60;0.60;;;;;;;3.81;100.00;99061.06;5069121;28;20219;-61
2023/01/21 06:40:15;;;;;;;0.60;0.60;;;;;;;3.85;100.00;99068.59;5069568;28;20207;-60
2023/01/21 06:42:46;;;;;;;0.60;0.60;;;;;;;3.84;100.00;99083.84;5067549;28;20196;-60
2023/01/21 06:45:13;;;;;;;0.60;0.60;;;;;;;3.73;100.00;99114.34;5071215;28;20655;-60
2023/01/21 06:47:41;;;;;;;0.70;0.70;;;;;;;3.68;100.00;99126.22;5071967;28;20200;-60
2023/01/21 06:50:09;;;;;;;0.60;0.60;;;;;;;3.61;100.00;99129.66;5065201;28;20207;-60
2023/01/21 06:52:36;;;;;;;0.60;0.60;;;;;;;3.61;100.00;99130.50;5072134;28;20208;-60
2023/01/21 06:55:03;;;;;;;0.83;0.83;;;;;;;3.68;100.00;99142.25;5071303;28;20250;-63
2023/01/21 07:00:01;;;;;;;0.60;0.60;;;;;;;3.77;100.00;99148.13;5053675;23;20216;-61
2023/01/21 07:02:28;;;;;;;6.43;2.50;;;;;;;3.80;100.00;99140.50;5053623;28;20224;-60
2023/01/21 07:04:55;;;;;;;0.70;0.70;;;;;;;3.85;100.00;99134.53;5053996;28;20203;-60
2023/01/21 07:07:22;;;;;;;0.60;0.60;;;;;;;3.90;100.00;99142.97;5053203;28;20205;-60
2023/01/21 07:09:49;;;;;;;0.87;0.87;;;;;;;3.98;100.00;99140.34;5050015;28;20217;-60
2023/01/21 07:12:16;;;;;;;0.70;0.70;;;;;;;4.00;100.00;99142.03;5054018;28;20201;-61
2023/01/21 07:14:43;;;;;;;0.60;0.60;;;;;;;3.97;100.00;99144.59;5052757;28;20295;-60
2023/01/21 07:17:11;;;;;;;0.60;0.60;;;;;;;3.99;100.00;99132.75;5050404;28;20205;-60
2023/01/21 07:19:38;;;;;;;0.77;0.77;;;;;;;4.03;100.00;99124.25;5052710;28;20275;-60
2023/01/21 07:22:05;;;;;;;0.50;0.50;;;;;;;4.15;100.00;99139.38;5051190;28;20197;-60
2023/01/21 07:24:32;;;;;;;0.70;0.70;;;;;;;4.18;100.00;99143.56;5049410;28;20209;-60
2023/01/21 07:26:59;;;;;;;0.80;0.80;;;;;;;4.26;100.00;99141.81;5053126;28;20205;-59
2023/01/21 07:29:26;;;;;;;0.73;0.73;;;;;;;4.25;100.00;99129.97;5046249;28;20215;-60
2023/01/21 07:31:53;;;;;;;0.70;0.70;;;;;;;4.31;100.00;99134.16;5051447;28;20209;-60
2023/01/21 07:34:21;;;;;;;0.60;0.60;;;;;;;4.38;100.00;99120.56;5053372;28;20214;-59
2023/01/21 07:36:48;;;;;;;0.77;0.77;;;;;;;4.48;100.00;99122.13;5052979;28;20201;-59
2023/01/21 07:39:15;;;;;;;0.60;0.60;;;;;;;4.52;100.00;99114.50;5052762;28;20699;-60
2023/01/21 07:41:42;;;;;;;0.50;0.50;;;;;;;4.62;100.00;99122.84;5050424;28;20757;-60
2023/01/21 07:44:09;;;;;;;0.60;0.60;;;;;;;4.70;100.00;99128.66;5052479;28;20200;-60
2023/01/21 07:46:36;;;;;;;0.63;0.63;;;;;;;4.72;100.00;99134.56;5050049;28;20197;-60
2023/01/21 07:49:02;;;;;;;0.77;0.77;;;;;;;4.71;100.00;99135.44;5052158;28;20292;-59
2023/01/21 07:51:31;;;;;;;0.87;0.87;;;;;;;4.81;100.00;99137.03;5052403;28;20200;-60
2023/01/21 07:53:58;;;;;;;0.60;0.60;;;;;;;4.66;100.00;99134.63;5052793;28;20204;-59
2023/01/21 07:56:25;;;;;;;0.60;0.60;;;;;;;4.77;100.00;99140.44;5044806;28;20228;-60
2023/01/21 07:58:52;;;;;;;0.70;0.70;;;;;;;4.73;100.00;99138.78;5051950;28;20228;-60
2023/01/21 08:01:19;;;;;;;0.63;0.63;;;;;;;4.85;100.00;99151.34;5051292;28;20323;-60
2023/01/21 08:03:46;;;;;;;0.60;0.60;;;;;;;4.76;100.00;99159.06;5052360;28;20204;-60
2023/01/21 08:06:14;;;;;;;0.50;0.50;;;;;;;4.75;100.00;99158.22;5050925;28;20197;-61
2023/01/21 08:08:42;;;;;;;0.60;0.60;;;;;;;4.78;100.00;99154.84;5052082;28;20201;-60
2023/01/21 08:11:09;;;;;;;1.10;1.00;;;;;;;4.82;100.00;99153.91;5052539;28;20196;-59
2023/01/21 08:13:35;;;;;;;0.53;0.53;;;;;;;4.96;100.00;99158.84;5051369;28;20204;-60
2023/01/21 08:16:03;;;;;;;0.60;0.60;;;;;;;5.08;100.00;99149.38;5050043;28;20205;-60
2023/01/21 08:18:30;;;;;;;0.60;0.60;;;;;;;5.15;100.00;99158.63;5051132;28;20213;-60
2023/01/21 08:20:58;;;;;;;0.67;0.67;;;;;;;5.19;100.00;99152.66;5050331;28;20212;-60
2023/01/21 08:23:25;;;;;;;0.57;0.57;;;;;;;5.21;100.00;99143.28;5049177;28;20223;-62
2023/01/21 08:25:53;;;;;;;0.60;0.60;;;;;;;5.00;100.00;99097.84;5044213;28;20523;-58
2023/01/21 08:28:20;;;;;;;0.70;0.70;;;;;;;5.40;100.00;99148.13;5050441;28;20211;-58
2023/01/21 08:30:47;;;;;;;0.93;0.93;;;;;;;5.30;100.00;99148.25;5050664;28;20204;-58
2023/01/21 08:33:14;;;;;;;0.63;0.63;;;;;;;5.29;100.00;99136.41;5050579;28;20212;-58
2023/01/21 08:35:41;;;;;;;0.60;0.60;;;;;;;5.33;100.00;99131.28;5051002;28;20274;-58
2023/01/21 08:38:08;;;;;;;0.50;0.50;;;;;;;5.45;100.00;99154.00;5050821;28;20224;-57
2023/01/21 08:40:34;;;;;;;0.60;0.60;;;;;;;5.44;100.00;99149.75;5051167;28;20205;-58
2023/01/21 08:43:06;;;;;;;0.70;0.70;;;;;;;5.48;100.00;99156.50;5048402;28;20207;-58
2023/01/21 08:45:32;;;;;;;0.60;0.60;;;;;;;5.41;100.00;99142.19;5048991;28;20204;-58
2023/01/21 08:48:02;;;;;;;2.20;1.47;;;;;;;5.47;100.00;99130.22;5048726;28;20197;-58
2023/01/21 08:50:29;;;;;;;0.60;0.60;;;;;;;5.44;100.00;99124.34;5049781;28;20203;-58
2023/01/21 08:52:56;;;;;;;0.80;0.80;;;;;;;5.46;100.00;99120.09;5050423;28;20208;-58
2023/01/21 08:55:25;;;;;;;0.80;0.80;;;;;;;5.38;100.00;99127.81;5050185;28;20679;-58
2023/01/21 08:57:53;;;;;;;0.93;0.93;;;;;;;5.41;100.00;99144.72;5050909;28;20630;-59
2023/01/21 09:00:22;;;;;;;0.70;0.70;;;;;;;5.41;100.00;99139.63;5050339;28;20243;-58
2023/01/21 09:02:49;;;;;;;0.70;0.70;;;;;;;5.41;100.00;99119.31;5047324;28;20197;-58
2023/01/21 09:05:17;;;;;;;0.50;0.50;;;;;;;5.43;100.00;99122.69;5051388;28;20683;-58
2023/01/21 09:07:44;;;;;;;0.57;0.57;;;;;;;5.50;100.00;99125.09;5046888;28;20197;-58
2023/01/21 09:10:12;;;;;;;0.80;0.80;;;;;;;5.51;100.00;99111.53;5050545;28;20197;-59
2023/01/21 09:12:40;;;;;;;0.60;0.60;;;;;;;5.57;100.00;99110.59;5049687;28;20572;-57
2023/01/21 09:15:08;;;;;;;0.50;0.50;;;;;;;5.64;100.00;99110.50;5050770;28;20196;-58
2023/01/21 09:17:37;;;;;;;0.70;0.70;;;;;;;5.68;100.00;99113.84;5049341;28;20193;-59
2023/01/21 09:20:05;;;;;;;1.00;1.00;;;;;;;5.70;100.00;99104.47;5046957;28;20228;-58
2023/01/21 09:22:31;;;;;;;0.50;0.50;;;;;;;5.64;100.00;99091.84;5049575;28;20205;-58
2023/01/21 09:24:59;;;;;;;0.50;0.50;;;;;;;5.76;100.00;99107.75;5051193;28;20683;-58
2023/01/21 09:27:35;;;;;;;0.53;0.53;;;;;;;5.82;100.00;99101.72;5050636;28;20231;-59
2023/01/21 09:30:03;;;;;;;0.77;0.77;;;;;;;5.86;100.00;99108.47;5050729;28;20196;-59
2023/01/21 09:32:31;;;;;;;0.97;0.97;;;;;;;5.86;100.00;99095.75;5048393;28;20197;-58
2023/01/21 09:34:59;;;;;;;0.87;0.87;;;;;;;5.95;100.00;99099.84;5050068;28;20224;-63
2023/01/21 09:37:26;;;;;;;0.57;0.57;;;;;;;5.98;100.00;99095.56;5050551;28;20205;-63
2023/01/21 09:39:53;;;;;;;0.50;0.50;;;;;;;6.04;100.00;99097.19;5046854;28;20232;-63
2023/01/21 09:42:23;;;;;;;0.60;0.60;;;;;;;6.12;100.00;99095.34;5046980;28;20208;-63
2023/01/21 09:44:52;;;;;;;0.60;0.60;;;;;;;6.18;100.00;99090.97;5047265;28;20488;-63
2023/01/21 09:47:23;;;;;;;0.57;0.57;;;;;;;6.25;100.00;99091.72;5049437;28;20258;-63
2023/01/21 09:49:54;;;;;;;0.93;0.93;;;;;;;6.37;100.00;99085.53;5049823;28;20223;-63
2023/01/21 09:52:29;;;;;;;0.67;0.67;;;;;;;6.42;100.00;99076.13;5047124;28;20690;-63
2023/01/21 09:54:58;;;;;;;0.80;0.80;;;;;;;6.50;100.00;99074.25;5048503;28;20218;-63
2023/01/21 09:58:04;;;;;;;0.70;0.70;;;;;;;6.61;100.00;99090.19;5049272;28;20215;-63
2023/01/21 10:00:36;;;;;;;0.67;0.67;;;;;;;6.62;100.00;99071.50;5040992;28;20204;-63
2023/01/21 10:03:17;;;;;;;0.50;0.50;;;;;;;6.68;100.00;99077.31;5050202;28;20204;-63
2023/01/21 10:06:19;;;;;;;0.50;0.50;;;;;;;6.70;100.00;99079.81;5049903;28;20211;-58
2023/01/21 10:09:11;;;;;;;0.50;0.50;;;;;;;6.75;100.00;99065.31;5049505;28;20678;-58
2023/01/21 10:11:50;;;;;;;0.67;0.67;;;;;;;6.89;100.00;99060.75;5044867;28;20479;-64
2023/01/21 10:14:32;;;;;;;0.57;0.57;;;;;;;6.86;100.00;99055.72;5045398;28;21247;-64
2023/01/21 10:17:05;;;;;;;1.10;1.10;;;;;;;6.95;100.00;99059.81;5045096;28;21024;-63
2023/01/21 10:19:38;;;;;;;0.50;0.50;;;;;;;7.14;100.00;99061.09;5050606;28;20227;-63
2023/01/21 10:22:12;;;;;;;0.50;0.50;;;;;;;7.05;100.00;99067.19;5046306;28;20208;-63
2023/01/21 10:24:46;;;;;;;0.90;0.90;;;;;;;7.16;100.00;99070.38;5050564;28;20212;-63
2023/01/21 10:27:16;;;;;;;0.50;0.50;;;;;;;7.25;100.00;99048.94;5052993;28;20626;-64
2023/01/21 10:29:43;;;;;;;0.50;0.50;;;;;;;7.19;100.00;99024.41;5049626;28;20197;-63
2023/01/21 10:32:15;;;;;;;0.70;0.70;;;;;;;7.51;100.00;99040.69;5051006;28;20567;-63
2023/01/21 10:34:49;;;;;;;0.53;0.53;;;;;;;7.67;100.00;99027.53;5051463;28;20274;-64
2023/01/21 10:37:22;;;;;;;0.50;0.50;;;;;;;7.74;100.00;98990.78;5050429;28;20216;-63
2023/01/21 10:40:00;;;;;;;0.50;0.50;;;;;;;7.94;100.00;99010.69;5051352;28;20225;-65
2023/01/21 10:42:54;;;;;;;1.93;1.93;;;;;;;7.99;100.00;98998.63;5051405;28;20205;-64
2023/01/21 10:45:31;;;;;;;0.60;0.60;;;;;;;8.02;100.00;98998.56;5049491;28;20598;-64
2023/01/21 10:48:08;;;;;;;0.50;0.50;;;;;;;8.03;100.00;98979.81;5051350;28;20204;-64
2023/01/21 10:50:45;;;;;;;0.60;0.60;;;;;;;8.12;100.00;99002.53;5052191;28;20262;-64
2023/01/21 10:53:20;;;;;;;1.00;1.00;;;;;;;7.90;100.00;98968.25;5053037;28;20216;-63
2023/01/21 10:56:08;;;;;;;0.70;0.70;;;;;;;8.12;100.00;98984.66;5053658;28;20203;-64
2023/01/21 10:58:41;;;;;;;0.47;0.47;;;;;;;8.22;100.00;98992.91;5052696;28;20710;-64
2023/01/21 11:01:16;;;;;;;0.60;0.60;;;;;;;8.29;100.00;98995.31;5050093;28;20703;-61
2023/01/21 11:03:46;;;;;;;0.60;0.60;;;;;;;8.31;100.00;98995.25;5052008;28;20204;-64
2023/01/21 11:06:16;;;;;;;0.50;0.50;;;;;;;8.42;100.00;98988.16;5052802;28;20216;-64
2023/01/21 11:08:45;;;;;;;0.50;0.50;;;;;;;8.49;100.00;98983.69;5047775;28;20193;-71
2023/01/21 11:11:17;;;;;;;0.53;0.53;;;;;;;8.60;100.00;98979.09;5049187;28;20216;-71
2023/01/21 11:13:44;;;;;;;0.67;0.67;;;;;;;8.60;100.00;98977.38;5045370;28;20565;-69
2023/01/21 11:16:11;;;;;;;3.97;1.00;;;;;;;8.70;100.00;98972.84;5051765;28;21757;-70
2023/01/21 11:18:40;;;;;;;0.60;0.60;;;;;;;8.67;100.00;98952.50;5051733;28;20227;-71
2023/01/21 11:21:17;;;;;;;1.03;1.03;;;;;;;8.84;100.00;98981.78;5047990;28;20204;-71
2023/01/21 11:23:54;;;;;;;0.50;0.50;;;;;;;8.90;100.00;98985.88;5050908;28;20200;-63
2023/01/21 11:26:25;;;;;;;0.50;0.50;;;;;;;8.94;100.00;98982.34;5048848;28;20220;-63
2023/01/21 11:29:06;;;;;;;0.43;0.43;;;;;;;9.02;100.00;98980.38;5050132;28;20706;-63
2023/01/21 11:31:34;;;;;;;0.50;0.50;;;;;;;8.99;100.00;98965.16;5049982;28;20212;-63
2023/01/21 11:34:05;;;;;;;1.70;1.10;;;;;;;9.10;100.00;98965.66;5049400;28;20201;-63
2023/01/21 11:36:33;;;;;;;0.50;0.50;;;;;;;9.12;100.00;98966.44;5049037;28;20687;-63
2023/01/21 11:39:07;;;;;;;0.73;0.73;;;;;;;9.24;100.00;98955.81;5046922;28;20299;-63
2023/01/21 11:41:36;;;;;;;0.50;0.50;;;;;;;9.29;100.00;98961.63;5049591;28;20250;-64
2023/01/21 11:44:17;;;;;;;0.50;0.50;;;;;;;9.31;100.00;98957.28;5051246;28;20205;-61
2023/01/21 11:46:45;;;;;;;0.70;0.70;;;;;;;9.40;100.00;98946.75;5052572;28;20205;-61
2023/01/21 11:49:24;;;;;;;0.93;0.93;;;;;;;9.38;100.00;98928.09;5049856;28;20247;-63
2023/01/21 11:52:13;;;;;;;0.77;0.77;;;;;;;9.58;100.00;98954.72;5049111;28;20205;-63